KCSM/CSM METAR and TAF weather

Enter ICAO airport designator
Station Type Date Time Source
KCSM METAR 2022/07/01 01:53 UTC NOAA

KCSM 010153Z 15014KT 10SM CLR 32/12 A2993 RMK AO2 SLP106 T03220117


Station Type Date Time Source
KCSM Decoded METAR 2022/07/01 01:53 UTC NOAA

CLINTON-SHERMAN AIRPORT, OK, United States (KCSM) 35-21E 99-12W 588M
Jun 30, 2022 - 09:53 PM EDT / 2022.07.01 0153 UTC
Wind: from the SSE (150 degrees) at 16 MPH (14 KT):0
Visibility: 10 mile(s):0
Sky conditions: clear
Temperature: 90.0 F (32.2 C)
Dew Point: 53.1 F (11.7 C)
Relative Humidity: 28%
Pressure (altimeter): 29.93 in. Hg (1013 hPa)
ob: KCSM 010153Z 15014KT 10SM CLR 32/12 A2993 RMK AO2 SLP106 T03220117
cycle: 2

Station Type Date Time Source
KCSM TAF 2022/06/30 18:22 UTC NOAA

TAF KCSM 301720Z 3018/0118 20015G22KT P6SM SKC
FM010200 15010KT P6SM SKC

Example: see airport list